createdAt,value
2018-08-16T00:00:14.879Z,12.10
2018-08-16T00:02:43.967Z,12.10
2018-08-16T00:05:12.921Z,12.10
2018-08-16T00:07:41.517Z,11.90
2018-08-16T00:10:14.087Z,11.90
2018-08-16T00:12:44.040Z,11.90
2018-08-16T00:15:13.264Z,12.00
2018-08-16T00:17:42.712Z,12.00
2018-08-16T00:20:11.872Z,11.90
2018-08-16T00:22:40.555Z,11.90
2018-08-16T00:25:10.021Z,11.80
2018-08-16T00:27:38.677Z,11.80
2018-08-16T00:30:10.900Z,11.70
2018-08-16T00:32:39.471Z,11.70
2018-08-16T00:35:08.312Z,11.60
2018-08-16T00:37:37.003Z,11.60
2018-08-16T00:40:07.875Z,11.50
2018-08-16T00:42:36.705Z,11.50
2018-08-16T00:45:06.756Z,11.40
2018-08-16T00:47:36.174Z,11.40
2018-08-16T00:50:06.837Z,11.40
2018-08-16T00:52:36.467Z,11.40
2018-08-16T00:55:06.492Z,11.40
2018-08-16T00:57:35.311Z,11.40
2018-08-16T01:00:04.511Z,11.40
2018-08-16T01:02:33.015Z,11.40
2018-08-16T01:05:01.496Z,11.40
2018-08-16T01:07:30.621Z,11.40
2018-08-16T01:09:59.100Z,11.40
2018-08-16T01:12:28.104Z,11.40
2018-08-16T01:14:56.751Z,11.40
2018-08-16T01:17:25.445Z,11.30
2018-08-16T01:19:54.089Z,11.30
2018-08-16T01:22:22.640Z,11.30
2018-08-16T01:24:51.120Z,11.30
2018-08-16T01:27:19.843Z,11.30
2018-08-16T01:29:48.343Z,11.30
2018-08-16T01:32:16.891Z,11.20
2018-08-16T01:34:45.644Z,11.20
2018-08-16T01:37:14.095Z,11.20
2018-08-16T01:39:42.755Z,11.20
2018-08-16T01:42:11.476Z,11.20
2018-08-16T01:44:40.193Z,11.20
2018-08-16T01:47:09.065Z,11.10
2018-08-16T01:49:38.619Z,11.10
2018-08-16T01:52:07.380Z,11.10
2018-08-16T01:54:36.005Z,11.10
2018-08-16T01:57:04.815Z,11.00
2018-08-16T01:59:33.418Z,10.90
2018-08-16T02:02:02.217Z,10.90
2018-08-16T02:04:30.869Z,10.90
2018-08-16T02:06:59.452Z,10.90
2018-08-16T02:09:28.496Z,10.90
2018-08-16T02:11:57.012Z,10.80
2018-08-16T02:14:25.539Z,10.70
2018-08-16T02:16:54.787Z,10.70
2018-08-16T02:19:23.351Z,10.70
2018-08-16T02:21:51.932Z,10.60
2018-08-16T02:24:20.535Z,10.60
2018-08-16T02:26:49.135Z,10.60
2018-08-16T02:29:17.629Z,10.60
2018-08-16T02:31:46.230Z,10.60
2018-08-16T02:34:14.761Z,10.60
2018-08-16T02:36:44.133Z,10.50
2018-08-16T02:39:12.861Z,10.50
2018-08-16T02:41:41.395Z,10.50
2018-08-16T02:44:10.116Z,10.50
2018-08-16T02:46:38.653Z,10.50
2018-08-16T02:49:07.170Z,10.40
2018-08-16T02:51:35.812Z,10.40
2018-08-16T02:54:04.561Z,10.40
2018-08-16T02:56:33.939Z,10.40
2018-08-16T02:59:02.761Z,10.50
2018-08-16T03:01:31.536Z,10.40
2018-08-16T03:04:00.336Z,10.40
2018-08-16T03:06:28.893Z,10.30
2018-08-16T03:08:57.460Z,10.30
2018-08-16T03:11:26.303Z,10.30
2018-08-16T03:13:55.929Z,10.20
2018-08-16T03:16:24.624Z,10.20
2018-08-16T03:18:53.323Z,10.30
2018-08-16T03:21:22.168Z,10.30
2018-08-16T03:23:50.816Z,10.30
2018-08-16T03:26:19.323Z,10.20
2018-08-16T03:28:47.967Z,10.10
2018-08-16T03:31:16.729Z,10.10
2018-08-16T03:33:45.376Z,10.00
2018-08-16T03:36:13.877Z,10.00
2018-08-16T03:38:42.364Z,10.00
2018-08-16T03:41:11.031Z,10.00
2018-08-16T03:43:40.085Z,10.10
2018-08-16T03:46:08.972Z,10.00
2018-08-16T03:48:37.504Z,9.90
2018-08-16T03:51:06.693Z,9.90
2018-08-16T03:53:35.601Z,9.90
2018-08-16T03:56:04.273Z,9.90
2018-08-16T03:58:32.866Z,9.90
2018-08-16T04:01:01.901Z,9.80
2018-08-16T04:03:31.224Z,9.80
2018-08-16T04:05:59.690Z,9.80
2018-08-16T04:08:28.262Z,9.80
2018-08-16T04:10:56.934Z,9.80
2018-08-16T04:13:25.559Z,9.80
2018-08-16T04:15:54.399Z,9.80
2018-08-16T04:18:23.143Z,9.70
2018-08-16T04:20:51.681Z,9.70
2018-08-16T04:23:20.213Z,9.70
2018-08-16T04:25:49.404Z,9.70
2018-08-16T04:28:18.753Z,9.70
2018-08-16T04:30:47.439Z,9.70
2018-08-16T04:33:17.142Z,9.70
2018-08-16T04:35:45.784Z,9.70
2018-08-16T04:38:14.342Z,9.80
2018-08-16T04:40:42.902Z,9.80
2018-08-16T04:43:11.707Z,9.80
2018-08-16T04:45:40.244Z,9.80
2018-08-16T04:48:08.874Z,9.80
2018-08-16T04:50:37.514Z,9.90
2018-08-16T04:53:06.800Z,9.90
2018-08-16T04:55:35.355Z,10.00
2018-08-16T04:58:04.464Z,10.00
2018-08-16T05:00:33.027Z,10.00
2018-08-16T05:03:01.679Z,10.00
2018-08-16T05:05:30.287Z,10.00
2018-08-16T05:07:59.308Z,10.00
2018-08-16T05:10:27.853Z,10.00
2018-08-16T05:12:56.491Z,10.00
2018-08-16T05:15:25.231Z,10.10
2018-08-16T05:17:54.361Z,10.10
2018-08-16T05:20:22.880Z,10.20
2018-08-16T05:22:52.147Z,10.30
2018-08-16T05:25:20.884Z,10.30
2018-08-16T05:27:49.524Z,10.40
2018-08-16T05:30:18.155Z,10.50
2018-08-16T05:32:46.842Z,10.60
2018-08-16T05:35:15.518Z,10.60
2018-08-16T05:37:44.724Z,10.70
2018-08-16T05:40:13.367Z,10.80
2018-08-16T05:42:41.845Z,10.90
2018-08-16T05:45:10.668Z,10.90
2018-08-16T05:47:39.325Z,11.10
2018-08-16T05:50:10.556Z,11.20
2018-08-16T05:52:39.505Z,11.30
2018-08-16T05:55:08.655Z,11.50
2018-08-16T05:57:38.145Z,11.60
2018-08-16T06:00:09.106Z,11.70
2018-08-16T06:02:37.963Z,11.90
2018-08-16T06:05:07.186Z,12.00
2018-08-16T06:07:36.052Z,12.20
2018-08-16T06:10:04.980Z,12.30
2018-08-16T06:12:33.603Z,12.50
2018-08-16T06:15:02.497Z,12.70
2018-08-16T06:17:31.119Z,12.80
2018-08-16T06:19:59.669Z,13.00
2018-08-16T06:22:28.315Z,13.20
2018-08-16T06:24:57.491Z,13.30
2018-08-16T06:27:27.492Z,13.50
2018-08-16T06:29:56.173Z,13.60
2018-08-16T06:32:24.776Z,13.80
2018-08-16T06:34:53.477Z,13.80
2018-08-16T06:37:22.255Z,13.90
2018-08-16T06:39:50.800Z,14.10
2018-08-16T06:42:19.356Z,14.20
2018-08-16T06:44:48.310Z,14.30
2018-08-16T06:47:17.536Z,14.40
2018-08-16T06:49:46.916Z,14.50
2018-08-16T06:52:15.846Z,14.60
2018-08-16T06:54:44.527Z,14.70
2018-08-16T06:57:13.341Z,14.90
2018-08-16T06:59:41.937Z,15.10
2018-08-16T07:02:10.429Z,15.20
2018-08-16T07:04:39.045Z,15.30
2018-08-16T07:07:07.692Z,15.50
2018-08-16T07:09:36.209Z,15.60
2018-08-16T07:12:04.889Z,15.70
2018-08-16T07:14:33.350Z,15.90
2018-08-16T07:17:01.925Z,16.00
2018-08-16T07:19:31.102Z,16.20
2018-08-16T07:21:59.753Z,16.40
2018-08-16T07:24:28.315Z,16.50
2018-08-16T07:26:56.860Z,16.70
2018-08-16T07:29:25.484Z,16.90
2018-08-16T07:31:54.037Z,17.10
2018-08-16T07:34:22.765Z,17.20
2018-08-16T07:36:52.224Z,17.40
2018-08-16T07:39:21.524Z,17.60
2018-08-16T07:41:50.603Z,17.70
2018-08-16T07:44:19.419Z,17.90
2018-08-16T07:46:48.479Z,18.10
2018-08-16T07:49:17.444Z,18.30
2018-08-16T07:51:46.303Z,18.50
2018-08-16T07:54:14.818Z,18.70
2018-08-16T07:56:43.304Z,18.90
2018-08-16T07:59:11.923Z,19.10
2018-08-16T08:01:40.517Z,19.30
2018-08-16T08:04:09.069Z,19.40
2018-08-16T08:06:37.554Z,19.50
2018-08-16T08:09:08.418Z,19.80
2018-08-16T08:11:37.424Z,20.00
2018-08-16T08:14:06.553Z,20.20
2018-08-16T08:16:35.293Z,20.30
2018-08-16T08:19:04.099Z,20.50
2018-08-16T08:21:33.097Z,20.70
2018-08-16T08:24:01.782Z,20.80
2018-08-16T08:26:30.943Z,20.90
2018-08-16T08:28:59.833Z,21.10
2018-08-16T08:31:28.853Z,21.30
2018-08-16T08:33:57.341Z,21.50
2018-08-16T08:36:37.276Z,21.70
2018-08-16T08:39:08.822Z,21.80
2018-08-16T08:41:37.477Z,22.00
2018-08-16T08:44:16.172Z,22.10
2018-08-16T08:46:45.747Z,22.30
2018-08-16T08:49:14.312Z,22.30
2018-08-16T08:51:42.927Z,22.50
2018-08-16T08:54:37.471Z,22.60
2018-08-16T08:57:17.364Z,22.80
2018-08-16T08:59:45.953Z,22.90
2018-08-16T09:02:14.703Z,23.20
2018-08-16T09:04:43.640Z,23.30
2018-08-16T09:07:13.816Z,23.40
2018-08-16T09:10:57.232Z,23.50
2018-08-16T09:13:37.963Z,23.60
2018-08-16T09:16:12.247Z,23.80
2018-08-16T09:18:41.016Z,23.90
2018-08-16T09:21:10.709Z,24.10
2018-08-16T09:23:39.339Z,24.20
2018-08-16T09:26:13.057Z,24.30
2018-08-16T09:28:42.238Z,24.30
2018-08-16T09:31:22.656Z,24.30
2018-08-16T09:34:02.387Z,24.40
2018-08-16T09:36:30.980Z,24.40
2018-08-16T09:38:59.890Z,24.60
2018-08-16T09:41:28.974Z,24.60
2018-08-16T09:43:58.317Z,24.70
2018-08-16T09:46:56.631Z,24.80
2018-08-16T09:49:25.295Z,25.00
2018-08-16T09:51:54.091Z,25.10
2018-08-16T09:54:22.792Z,25.00
2018-08-16T09:56:51.889Z,25.10
2018-08-16T09:59:20.732Z,25.20
2018-08-16T10:01:49.394Z,25.50
2018-08-16T10:04:18.147Z,25.50
2018-08-16T10:06:46.965Z,25.50
2018-08-16T10:09:20.641Z,25.60
2018-08-16T10:11:49.507Z,25.70
2018-08-16T10:14:18.433Z,25.70
2018-08-16T10:16:47.605Z,25.70
2018-08-16T10:19:16.485Z,25.60
2018-08-16T10:21:45.498Z,25.80
2018-08-16T10:24:14.385Z,26.00
2018-08-16T10:26:43.245Z,26.20
2018-08-16T10:29:12.493Z,26.00
2018-08-16T10:31:41.200Z,26.00
2018-08-16T10:34:09.921Z,26.10
2018-08-16T10:36:39.271Z,26.40
2018-08-16T10:39:16.188Z,26.50
2018-08-16T10:41:44.935Z,26.80
2018-08-16T10:44:14.355Z,26.80
2018-08-16T10:46:43.061Z,27.10
2018-08-16T10:49:12.020Z,27.10
2018-08-16T10:51:40.578Z,27.10
2018-08-16T10:54:09.328Z,26.90
2018-08-16T10:56:38.767Z,26.90
2018-08-16T10:59:07.355Z,27.00
2018-08-16T11:01:36.209Z,27.20
2018-08-16T11:04:05.114Z,27.50
2018-08-16T11:06:33.812Z,27.60
2018-08-16T11:09:02.569Z,27.90
2018-08-16T11:11:31.267Z,28.20
2018-08-16T11:14:00.055Z,28.50
2018-08-16T11:16:28.679Z,28.70
2018-08-16T11:18:57.916Z,28.90
2018-08-16T11:21:26.416Z,29.10
2018-08-16T11:23:55.299Z,29.40
2018-08-16T11:26:24.046Z,29.20
2018-08-16T11:28:52.687Z,29.20
2018-08-16T11:31:21.549Z,29.50
2018-08-16T11:33:50.114Z,29.70
2018-08-16T11:36:18.808Z,30.00
2018-08-16T11:38:47.348Z,29.70
2018-08-16T11:41:15.952Z,30.00
2018-08-16T11:43:44.654Z,29.70
2018-08-16T11:46:13.268Z,29.40
2018-08-16T11:48:41.979Z,28.90
2018-08-16T11:51:10.724Z,29.30
2018-08-16T11:53:39.319Z,29.70
2018-08-16T11:56:08.088Z,30.00
2018-08-16T11:58:36.748Z,30.30
2018-08-16T12:01:05.409Z,30.50
2018-08-16T12:03:34.083Z,30.60
2018-08-16T12:06:02.826Z,30.60
2018-08-16T12:08:31.526Z,30.80
2018-08-16T12:11:00.151Z,31.00
2018-08-16T12:13:29.150Z,31.10
2018-08-16T12:15:57.952Z,31.10
2018-08-16T12:18:26.496Z,31.00
2018-08-16T12:20:55.915Z,30.90
2018-08-16T12:23:24.512Z,31.00
2018-08-16T12:25:53.210Z,31.10
2018-08-16T12:28:21.857Z,30.90
2018-08-16T12:30:50.688Z,30.30
2018-08-16T12:33:19.196Z,30.10
2018-08-16T12:35:47.761Z,29.90
2018-08-16T12:38:16.289Z,29.90
2018-08-16T12:40:45.317Z,30.00
2018-08-16T12:43:13.823Z,30.10
2018-08-16T12:45:42.513Z,30.40
2018-08-16T12:48:11.374Z,30.40
2018-08-16T12:50:40.187Z,30.70
2018-08-16T12:53:08.708Z,30.70
2018-08-16T12:55:37.365Z,30.70
2018-08-16T12:58:05.945Z,30.70
2018-08-16T13:00:34.498Z,30.80
2018-08-16T13:03:03.275Z,30.90
2018-08-16T13:05:31.816Z,31.00
2018-08-16T13:08:00.789Z,30.90
2018-08-16T13:10:29.583Z,30.70
2018-08-16T13:12:58.439Z,30.50
2018-08-16T13:15:27.121Z,30.70
2018-08-16T13:17:55.827Z,30.90
2018-08-16T13:20:24.376Z,30.40
2018-08-16T13:22:53.745Z,30.30
2018-08-16T13:25:22.437Z,30.50
2018-08-16T13:27:51.056Z,30.80
2018-08-16T13:30:19.611Z,30.90
2018-08-16T13:32:48.309Z,31.10
2018-08-16T13:35:16.921Z,31.10
2018-08-16T13:37:45.651Z,31.40
2018-08-16T13:40:14.259Z,31.60
2018-08-16T13:42:43.366Z,31.30
2018-08-16T13:45:12.464Z,31.40
2018-08-16T13:47:41.148Z,31.40
2018-08-16T13:50:10.195Z,31.40
2018-08-16T13:52:38.883Z,31.20
2018-08-16T13:55:07.742Z,31.00
2018-08-16T13:57:36.463Z,31.10
2018-08-16T14:00:06.574Z,31.00
2018-08-16T14:02:35.185Z,30.90
2018-08-16T14:05:03.856Z,31.10
2018-08-16T14:07:32.475Z,30.90
2018-08-16T14:10:01.093Z,30.80
2018-08-16T14:12:29.934Z,30.80
2018-08-16T14:14:58.653Z,31.20
2018-08-16T14:17:27.584Z,31.40
2018-08-16T14:19:56.504Z,31.60
2018-08-16T14:22:25.150Z,31.70
2018-08-16T14:24:53.648Z,31.90
2018-08-16T14:27:22.300Z,32.10
2018-08-16T14:29:50.854Z,32.30
2018-08-16T14:32:19.425Z,32.50
2018-08-16T14:34:48.090Z,33.00
2018-08-16T14:37:16.694Z,33.20
2018-08-16T14:39:45.777Z,33.50
2018-08-16T14:42:14.408Z,33.90
2018-08-16T14:44:42.923Z,34.00
2018-08-16T14:47:11.532Z,34.20
2018-08-16T14:49:40.133Z,33.90
2018-08-16T14:52:08.793Z,34.20
2018-08-16T14:54:38.076Z,35.10
2018-08-16T14:57:07.504Z,35.60
2018-08-16T14:59:36.025Z,36.50
2018-08-16T15:02:04.756Z,37.40
2018-08-16T15:04:34.107Z,38.20
2018-08-16T15:07:02.726Z,38.60
2018-08-16T15:09:31.348Z,39.40
2018-08-16T15:12:00.092Z,40.20
2018-08-16T15:14:28.736Z,39.40
2018-08-16T15:16:57.368Z,39.30
2018-08-16T15:19:25.877Z,39.60
2018-08-16T15:21:54.428Z,40.50
2018-08-16T15:24:23.023Z,40.50
2018-08-16T15:26:51.551Z,40.70
2018-08-16T15:29:20.713Z,40.80
2018-08-16T15:31:49.263Z,41.20
2018-08-16T15:34:17.879Z,41.30
2018-08-16T15:36:46.540Z,41.20
2018-08-16T15:39:15.379Z,40.50
2018-08-16T15:41:44.055Z,40.20
2018-08-16T15:44:12.928Z,40.00
2018-08-16T15:46:41.775Z,39.90
2018-08-16T15:49:10.354Z,40.10
2018-08-16T15:51:38.976Z,40.20
2018-08-16T15:54:07.595Z,40.50
2018-08-16T15:56:36.164Z,40.90
2018-08-16T15:59:05.523Z,41.00
2018-08-16T16:01:34.226Z,41.20
2018-08-16T16:04:02.904Z,41.20
2018-08-16T16:06:31.541Z,41.90
2018-08-16T16:09:00.376Z,41.60
2018-08-16T16:11:29.002Z,41.80
2018-08-16T16:13:57.724Z,42.00
2018-08-16T16:16:26.378Z,41.10
2018-08-16T16:18:55.160Z,41.70
2018-08-16T16:21:23.789Z,41.40
2018-08-16T16:23:52.615Z,41.90
2018-08-16T16:26:21.432Z,41.40
2018-08-16T16:28:50.444Z,40.50
2018-08-16T16:31:19.282Z,40.30
2018-08-16T16:33:47.989Z,40.50
2018-08-16T16:36:16.784Z,40.10
2018-08-16T16:38:45.854Z,40.00
2018-08-16T16:41:14.892Z,40.10
2018-08-16T16:43:43.787Z,39.80
2018-08-16T16:46:12.777Z,39.10
2018-08-16T16:48:41.390Z,38.70
2018-08-16T16:51:10.262Z,38.90
2018-08-16T16:53:39.120Z,38.70
2018-08-16T16:56:08.023Z,38.40
2018-08-16T16:58:36.918Z,38.70
2018-08-16T17:01:05.553Z,38.70
2018-08-16T17:03:34.361Z,38.60
2018-08-16T17:06:02.992Z,38.50
2018-08-16T17:08:31.704Z,38.70
2018-08-16T17:11:00.526Z,38.50
2018-08-16T17:13:29.360Z,38.20
2018-08-16T17:15:58.261Z,37.80
2018-08-16T17:18:27.009Z,37.80
2018-08-16T17:20:55.802Z,38.00
2018-08-16T17:23:24.668Z,37.70
2018-08-16T17:25:53.503Z,37.80
2018-08-16T17:28:22.705Z,37.50
2018-08-16T17:30:52.095Z,37.00
2018-08-16T17:33:21.407Z,36.40
2018-08-16T17:35:50.136Z,35.60
2018-08-16T17:38:19.005Z,33.90
2018-08-16T17:40:47.728Z,32.40
2018-08-16T17:43:16.310Z,31.00
2018-08-16T17:45:44.883Z,30.10
2018-08-16T17:48:13.500Z,29.40
2018-08-16T17:50:42.129Z,28.40
2018-08-16T17:53:10.769Z,27.90
2018-08-16T17:55:39.284Z,27.70
2018-08-16T17:58:08.185Z,27.30
2018-08-16T18:00:36.822Z,27.30
2018-08-16T18:03:05.573Z,27.10
2018-08-16T18:05:34.176Z,26.80
2018-08-16T18:08:02.941Z,26.50
2018-08-16T18:10:31.632Z,26.20
2018-08-16T18:13:00.198Z,26.00
2018-08-16T18:15:29.014Z,25.90
2018-08-16T18:17:57.682Z,25.60
2018-08-16T18:20:26.313Z,25.20
2018-08-16T18:22:54.964Z,25.10
2018-08-16T18:25:23.675Z,24.70
2018-08-16T18:27:52.330Z,24.40
2018-08-16T18:30:20.930Z,24.20
2018-08-16T18:32:53.982Z,24.00
2018-08-16T18:35:22.588Z,23.70
2018-08-16T18:37:51.282Z,23.40
2018-08-16T18:40:20.259Z,23.00
2018-08-16T18:42:49.113Z,22.90
2018-08-16T18:45:17.948Z,22.80
2018-08-16T18:47:46.605Z,22.50
2018-08-16T18:50:15.357Z,22.40
2018-08-16T18:52:44.624Z,22.10
2018-08-16T18:55:13.381Z,22.00
2018-08-16T18:57:41.995Z,22.00
2018-08-16T19:00:10.775Z,21.70
2018-08-16T19:02:39.624Z,21.60
2018-08-16T19:05:08.381Z,21.50
2018-08-16T19:07:37.269Z,21.20
2018-08-16T19:10:06.737Z,21.30
2018-08-16T19:12:35.393Z,21.20
2018-08-16T19:15:04.381Z,21.10
2018-08-16T19:17:34.973Z,20.80
2018-08-16T19:20:04.160Z,20.70
2018-08-16T19:22:33.296Z,20.60
2018-08-16T19:25:02.127Z,20.50
2018-08-16T19:27:30.907Z,20.50
2018-08-16T19:29:59.624Z,20.30
2018-08-16T19:32:28.560Z,20.10
2018-08-16T19:34:57.460Z,20.00
2018-08-16T19:37:26.641Z,19.90
2018-08-16T19:39:55.704Z,19.70
2018-08-16T19:42:24.228Z,19.50
2018-08-16T19:44:52.901Z,19.40
2018-08-16T19:47:21.537Z,19.40
2018-08-16T19:49:50.247Z,19.30
2018-08-16T19:52:19.039Z,19.10
2018-08-16T19:54:50.178Z,19.10
2018-08-16T19:57:18.936Z,19.00
2018-08-16T19:59:47.677Z,18.90
2018-08-16T20:02:16.278Z,18.90
2018-08-16T20:04:45.254Z,18.80
2018-08-16T20:07:14.069Z,18.80
2018-08-16T20:09:42.998Z,18.70
2018-08-16T20:12:11.804Z,18.60
2018-08-16T20:14:40.716Z,18.40
2018-08-16T20:17:09.401Z,18.20
2018-08-16T20:19:38.286Z,18.20
2018-08-16T20:22:14.669Z,18.20
2018-08-16T20:24:43.376Z,18.10
2018-08-16T20:27:13.348Z,18.00
2018-08-16T20:29:42.101Z,17.90
2018-08-16T20:32:10.743Z,17.90
2018-08-16T20:34:39.591Z,17.80
2018-08-16T20:37:08.546Z,17.90
2018-08-16T20:39:37.387Z,17.80
2018-08-16T20:42:06.092Z,17.70
2018-08-16T20:44:35.028Z,17.60
2018-08-16T20:47:03.929Z,17.50
2018-08-16T20:49:32.437Z,17.40
2018-08-16T20:52:01.287Z,17.40
2018-08-16T20:54:29.918Z,17.30
2018-08-16T20:56:58.596Z,17.20
2018-08-16T20:59:27.351Z,17.20
2018-08-16T21:01:56.075Z,17.10
2018-08-16T21:04:24.802Z,17.10
2018-08-16T21:06:53.427Z,17.00
2018-08-16T21:10:00.061Z,16.90
2018-08-16T21:12:28.923Z,16.90
2018-08-16T21:14:58.485Z,16.70
2018-08-16T21:17:27.240Z,16.60
2018-08-16T21:19:57.136Z,16.50
2018-08-16T21:22:25.983Z,16.40
2018-08-16T21:24:54.962Z,16.40
2018-08-16T21:27:23.616Z,16.40
2018-08-16T21:29:52.812Z,16.40
2018-08-16T21:32:21.943Z,16.40
2018-08-16T21:34:50.814Z,16.30
2018-08-16T21:37:19.603Z,16.30
2018-08-16T21:39:51.693Z,16.30
2018-08-16T21:43:05.109Z,16.20
2018-08-16T21:45:46.396Z,16.20
2018-08-16T21:48:15.006Z,16.10
2018-08-16T21:50:43.557Z,16.10
2018-08-16T21:53:12.496Z,16.10
2018-08-16T21:55:41.015Z,16.00
2018-08-16T21:58:09.508Z,15.80
2018-08-16T22:01:02.614Z,15.70
2018-08-16T22:03:31.498Z,15.70
2018-08-16T22:06:02.333Z,15.70
2018-08-16T22:08:50.860Z,15.80
2018-08-16T22:11:19.969Z,15.60
2018-08-16T22:13:48.735Z,15.50
2018-08-16T22:16:18.028Z,15.50
2018-08-16T22:18:46.589Z,15.30
2018-08-16T22:21:15.289Z,15.40
2018-08-16T22:23:44.164Z,15.30
2018-08-16T22:26:13.239Z,15.20
2018-08-16T22:28:41.907Z,15.30
2018-08-16T22:31:10.787Z,15.30
2018-08-16T22:33:39.863Z,15.20
2018-08-16T22:36:08.563Z,15.10
2018-08-16T22:38:37.073Z,15.00
2018-08-16T22:41:05.701Z,14.90
2018-08-16T22:43:34.286Z,14.80
2018-08-16T22:46:02.987Z,14.80
2018-08-16T22:48:32.075Z,14.70
2018-08-16T22:51:00.605Z,14.70
2018-08-16T22:53:29.381Z,14.70
2018-08-16T22:55:57.969Z,14.60
2018-08-16T22:58:26.560Z,14.60
2018-08-16T23:00:55.186Z,14.70
2018-08-16T23:03:23.851Z,14.70
2018-08-16T23:05:54.124Z,14.70
2018-08-16T23:08:22.718Z,14.60
2018-08-16T23:10:51.376Z,14.60
2018-08-16T23:13:20.020Z,14.50
2018-08-16T23:15:49.012Z,14.50
2018-08-16T23:18:17.631Z,14.50
2018-08-16T23:20:46.328Z,14.50
2018-08-16T23:23:15.109Z,14.40
2018-08-16T23:25:43.779Z,14.40
2018-08-16T23:28:12.316Z,14.30
2018-08-16T23:30:41.133Z,14.30
2018-08-16T23:33:09.846Z,14.20
2018-08-16T23:35:38.775Z,14.10
2018-08-16T23:38:07.634Z,14.10
2018-08-16T23:40:36.204Z,14.10
2018-08-16T23:43:04.776Z,14.00
2018-08-16T23:45:33.345Z,14.10
2018-08-16T23:48:13.851Z,14.10
2018-08-16T23:50:42.836Z,14.10
2018-08-16T23:53:11.353Z,14.20
2018-08-16T23:55:40.289Z,14.20
2018-08-16T23:58:08.915Z,14.10
